sensor_id;sensor_type;location;lat;lon;timestamp;P1;durP1;ratioP1;P2;durP2;ratioP2
72949;SDS011;64868;45.710;9.590;2023-01-16T00:00:52;47.40;;;30.25;;
72949;SDS011;64868;45.710;9.590;2023-01-16T00:03:19;42.08;;;27.50;;
72949;SDS011;64868;45.710;9.590;2023-01-16T00:05:45;44.50;;;29.17;;
72949;SDS011;64868;45.710;9.590;2023-01-16T00:08:10;41.65;;;27.67;;
72949;SDS011;64868;45.710;9.590;2023-01-16T00:10:36;43.35;;;27.83;;
72949;SDS011;64868;45.710;9.590;2023-01-16T00:13:01;42.75;;;26.23;;
72949;SDS011;64868;45.710;9.590;2023-01-16T00:15:27;43.40;;;29.52;;
72949;SDS011;64868;45.710;9.590;2023-01-16T00:17:53;47.05;;;30.10;;
72949;SDS011;64868;45.710;9.590;2023-01-16T00:20:19;50.20;;;30.08;;
72949;SDS011;64868;45.710;9.590;2023-01-16T00:22:44;48.03;;;30.00;;
72949;SDS011;64868;45.710;9.590;2023-01-16T00:25:10;45.78;;;28.42;;
72949;SDS011;64868;45.710;9.590;2023-01-16T00:27:36;40.95;;;26.13;;
72949;SDS011;64868;45.710;9.590;2023-01-16T00:30:01;45.53;;;27.30;;
72949;SDS011;64868;45.710;9.590;2023-01-16T00:32:28;43.30;;;27.20;;
72949;SDS011;64868;45.710;9.590;2023-01-16T00:34:53;42.33;;;25.90;;
72949;SDS011;64868;45.710;9.590;2023-01-16T00:37:18;45.10;;;28.70;;
72949;SDS011;64868;45.710;9.590;2023-01-16T00:39:44;42.78;;;26.83;;
72949;SDS011;64868;45.710;9.590;2023-01-16T00:42:09;42.22;;;27.02;;
72949;SDS011;64868;45.710;9.590;2023-01-16T00:44:34;43.38;;;26.65;;
72949;SDS011;64868;45.710;9.590;2023-01-16T00:47:00;44.05;;;26.88;;
72949;SDS011;64868;45.710;9.590;2023-01-16T00:49:26;40.83;;;25.27;;
72949;SDS011;64868;45.710;9.590;2023-01-16T00:51:52;47.70;;;28.05;;
72949;SDS011;64868;45.710;9.590;2023-01-16T00:54:18;46.55;;;29.05;;
72949;SDS011;64868;45.710;9.590;2023-01-16T00:56:43;51.85;;;30.55;;
72949;SDS011;64868;45.710;9.590;2023-01-16T00:59:09;49.92;;;27.40;;
72949;SDS011;64868;45.710;9.590;2023-01-16T01:01:35;50.75;;;30.48;;
72949;SDS011;64868;45.710;9.590;2023-01-16T01:04:00;50.15;;;29.48;;
72949;SDS011;64868;45.710;9.590;2023-01-16T01:06:26;49.42;;;29.38;;
72949;SDS011;64868;45.710;9.590;2023-01-16T01:08:51;46.80;;;28.55;;
72949;SDS011;64868;45.710;9.590;2023-01-16T01:11:17;51.92;;;30.08;;
72949;SDS011;64868;45.710;9.590;2023-01-16T01:13:42;48.67;;;28.48;;
72949;SDS011;64868;45.710;9.590;2023-01-16T01:16:08;51.25;;;29.88;;
72949;SDS011;64868;45.710;9.590;2023-01-16T01:18:35;49.47;;;28.75;;
72949;SDS011;64868;45.710;9.590;2023-01-16T01:21:01;50.47;;;30.35;;
72949;SDS011;64868;45.710;9.590;2023-01-16T01:23:26;51.38;;;32.05;;
72949;SDS011;64868;45.710;9.590;2023-01-16T01:25:52;59.50;;;33.63;;
72949;SDS011;64868;45.710;9.590;2023-01-16T01:28:18;61.25;;;32.83;;
72949;SDS011;64868;45.710;9.590;2023-01-16T01:30:44;55.83;;;30.92;;
72949;SDS011;64868;45.710;9.590;2023-01-16T01:33:09;63.97;;;33.00;;
72949;SDS011;64868;45.710;9.590;2023-01-16T01:35:35;53.35;;;30.77;;
72949;SDS011;64868;45.710;9.590;2023-01-16T01:38:01;56.70;;;31.75;;
72949;SDS011;64868;45.710;9.590;2023-01-16T01:40:27;60.58;;;33.25;;
72949;SDS011;64868;45.710;9.590;2023-01-16T01:42:52;60.70;;;33.13;;
72949;SDS011;64868;45.710;9.590;2023-01-16T01:45:26;55.22;;;30.98;;
72949;SDS011;64868;45.710;9.590;2023-01-16T01:47:57;55.95;;;30.75;;
72949;SDS011;64868;45.710;9.590;2023-01-16T01:50:40;54.35;;;30.60;;
72949;SDS011;64868;45.710;9.590;2023-01-16T01:53:09;51.53;;;31.02;;
72949;SDS011;64868;45.710;9.590;2023-01-16T01:55:42;51.13;;;30.42;;
72949;SDS011;64868;45.710;9.590;2023-01-16T01:58:11;48.85;;;29.20;;
72949;SDS011;64868;45.710;9.590;2023-01-16T02:00:46;49.03;;;29.30;;
72949;SDS011;64868;45.710;9.590;2023-01-16T02:03:16;44.45;;;27.27;;
72949;SDS011;64868;45.710;9.590;2023-01-16T02:05:51;48.75;;;28.13;;
72949;SDS011;64868;45.710;9.590;2023-01-16T02:08:19;47.97;;;27.77;;
72949;SDS011;64868;45.710;9.590;2023-01-16T02:10:55;47.78;;;29.10;;
72949;SDS011;64868;45.710;9.590;2023-01-16T02:13:25;52.20;;;28.30;;
72949;SDS011;64868;45.710;9.590;2023-01-16T02:15:51;47.08;;;27.42;;
72949;SDS011;64868;45.710;9.590;2023-01-16T02:18:35;46.45;;;24.80;;
72949;SDS011;64868;45.710;9.590;2023-01-16T02:26:58;47.90;;;27.38;;
72949;SDS011;64868;45.710;9.590;2023-01-16T02:32:14;52.63;;;28.83;;
72949;SDS011;64868;45.710;9.590;2023-01-16T02:34:47;49.30;;;28.85;;
72949;SDS011;64868;45.710;9.590;2023-01-16T02:51:44;55.42;;;31.05;;
72949;SDS011;64868;45.710;9.590;2023-01-16T02:54:16;50.30;;;30.30;;
72949;SDS011;64868;45.710;9.590;2023-01-16T02:57:05;53.42;;;32.67;;
72949;SDS011;64868;45.710;9.590;2023-01-16T02:59:34;54.38;;;29.98;;
72949;SDS011;64868;45.710;9.590;2023-01-16T03:02:00;52.80;;;31.27;;
72949;SDS011;64868;45.710;9.590;2023-01-16T03:23:52;53.15;;;30.23;;
72949;SDS011;64868;45.710;9.590;2023-01-16T03:31:33;52.20;;;30.85;;
72949;SDS011;64868;45.710;9.590;2023-01-16T03:34:11;49.17;;;28.30;;
72949;SDS011;64868;45.710;9.590;2023-01-16T03:39:18;45.63;;;27.02;;
72949;SDS011;64868;45.710;9.590;2023-01-16T03:41:50;49.53;;;28.60;;
72949;SDS011;64868;45.710;9.590;2023-01-16T03:44:24;47.15;;;27.98;;
72949;SDS011;64868;45.710;9.590;2023-01-16T03:46:54;48.78;;;26.77;;
72949;SDS011;64868;45.710;9.590;2023-01-16T03:49:24;52.75;;;28.15;;
72949;SDS011;64868;45.710;9.590;2023-01-16T03:52:00;53.78;;;29.60;;
72949;SDS011;64868;45.710;9.590;2023-01-16T03:54:36;51.20;;;29.15;;
72949;SDS011;64868;45.710;9.590;2023-01-16T03:57:13;47.45;;;25.60;;
72949;SDS011;64868;45.710;9.590;2023-01-16T03:59:39;45.75;;;23.52;;
72949;SDS011;64868;45.710;9.590;2023-01-16T04:07:12;44.70;;;23.52;;
72949;SDS011;64868;45.710;9.590;2023-01-16T04:09:50;46.00;;;23.33;;
72949;SDS011;64868;45.710;9.590;2023-01-16T04:12:21;42.38;;;23.13;;
72949;SDS011;64868;45.710;9.590;2023-01-16T04:15:00;45.22;;;24.00;;
72949;SDS011;64868;45.710;9.590;2023-01-16T04:17:29;46.10;;;24.17;;
72949;SDS011;64868;45.710;9.590;2023-01-16T04:19:55;44.63;;;23.98;;
72949;SDS011;64868;45.710;9.590;2023-01-16T04:22:22;43.92;;;23.27;;
72949;SDS011;64868;45.710;9.590;2023-01-16T04:24:50;48.13;;;25.55;;
72949;SDS011;64868;45.710;9.590;2023-01-16T04:27:18;44.63;;;24.35;;
72949;SDS011;64868;45.710;9.590;2023-01-16T04:29:44;46.53;;;25.10;;
72949;SDS011;64868;45.710;9.590;2023-01-16T04:32:09;47.33;;;25.85;;
72949;SDS011;64868;45.710;9.590;2023-01-16T04:34:35;47.13;;;24.48;;
72949;SDS011;64868;45.710;9.590;2023-01-16T04:37:00;41.10;;;21.95;;
72949;SDS011;64868;45.710;9.590;2023-01-16T04:39:26;46.10;;;24.77;;
72949;SDS011;64868;45.710;9.590;2023-01-16T04:41:51;41.33;;;22.77;;
72949;SDS011;64868;45.710;9.590;2023-01-16T04:44:17;42.28;;;23.25;;
72949;SDS011;64868;45.710;9.590;2023-01-16T04:46:43;41.30;;;22.10;;
72949;SDS011;64868;45.710;9.590;2023-01-16T04:49:09;42.30;;;22.05;;
72949;SDS011;64868;45.710;9.590;2023-01-16T04:51:35;42.63;;;22.27;;
72949;SDS011;64868;45.710;9.590;2023-01-16T04:54:02;39.72;;;21.08;;
72949;SDS011;64868;45.710;9.590;2023-01-16T04:56:28;44.25;;;21.77;;
72949;SDS011;64868;45.710;9.590;2023-01-16T04:58:54;45.10;;;24.58;;
72949;SDS011;64868;45.710;9.590;2023-01-16T05:01:20;42.70;;;21.95;;
72949;SDS011;64868;45.710;9.590;2023-01-16T05:03:46;44.00;;;22.35;;
72949;SDS011;64868;45.710;9.590;2023-01-16T05:06:11;39.55;;;20.67;;
72949;SDS011;64868;45.710;9.590;2023-01-16T05:08:36;38.58;;;20.25;;
72949;SDS011;64868;45.710;9.590;2023-01-16T05:11:02;39.28;;;21.45;;
72949;SDS011;64868;45.710;9.590;2023-01-16T05:13:28;37.20;;;21.25;;
72949;SDS011;64868;45.710;9.590;2023-01-16T05:15:53;40.88;;;22.55;;
72949;SDS011;64868;45.710;9.590;2023-01-16T05:18:19;41.67;;;23.05;;
72949;SDS011;64868;45.710;9.590;2023-01-16T05:20:44;54.70;;;24.02;;
72949;SDS011;64868;45.710;9.590;2023-01-16T05:23:09;67.03;;;22.50;;
72949;SDS011;64868;45.710;9.590;2023-01-16T05:25:36;52.42;;;23.45;;
72949;SDS011;64868;45.710;9.590;2023-01-16T05:28:01;44.25;;;23.48;;
72949;SDS011;64868;45.710;9.590;2023-01-16T05:30:27;41.25;;;23.05;;
72949;SDS011;64868;45.710;9.590;2023-01-16T05:32:53;37.80;;;21.35;;
72949;SDS011;64868;45.710;9.590;2023-01-16T05:35:18;36.28;;;21.10;;
72949;SDS011;64868;45.710;9.590;2023-01-16T05:37:45;36.53;;;21.45;;
72949;SDS011;64868;45.710;9.590;2023-01-16T05:40:10;43.25;;;23.63;;
72949;SDS011;64868;45.710;9.590;2023-01-16T05:42:36;43.08;;;23.42;;
72949;SDS011;64868;45.710;9.590;2023-01-16T05:45:02;41.25;;;23.30;;
72949;SDS011;64868;45.710;9.590;2023-01-16T05:47:28;72.93;;;22.67;;
72949;SDS011;64868;45.710;9.590;2023-01-16T05:49:53;43.38;;;21.70;;
72949;SDS011;64868;45.710;9.590;2023-01-16T05:52:19;62.72;;;22.85;;
72949;SDS011;64868;45.710;9.590;2023-01-16T05:54:44;54.47;;;21.83;;
72949;SDS011;64868;45.710;9.590;2023-01-16T05:57:09;36.20;;;20.90;;
72949;SDS011;64868;45.710;9.590;2023-01-16T05:59:35;34.80;;;20.65;;
72949;SDS011;64868;45.710;9.590;2023-01-16T06:02:00;34.95;;;20.85;;
72949;SDS011;64868;45.710;9.590;2023-01-16T06:04:26;58.47;;;19.48;;
72949;SDS011;64868;45.710;9.590;2023-01-16T06:06:51;31.40;;;18.77;;
72949;SDS011;64868;45.710;9.590;2023-01-16T06:09:16;28.55;;;18.88;;
72949;SDS011;64868;45.710;9.590;2023-01-16T06:11:42;32.13;;;19.00;;
72949;SDS011;64868;45.710;9.590;2023-01-16T06:14:08;31.45;;;19.50;;
72949;SDS011;64868;45.710;9.590;2023-01-16T06:16:33;43.88;;;21.08;;
72949;SDS011;64868;45.710;9.590;2023-01-16T06:19:00;39.63;;;20.13;;
72949;SDS011;64868;45.710;9.590;2023-01-16T06:21:26;36.90;;;21.48;;
72949;SDS011;64868;45.710;9.590;2023-01-16T06:23:51;32.72;;;20.63;;
72949;SDS011;64868;45.710;9.590;2023-01-16T06:26:17;34.03;;;21.55;;
72949;SDS011;64868;45.710;9.590;2023-01-16T06:28:42;39.78;;;22.60;;
72949;SDS011;64868;45.710;9.590;2023-01-16T06:31:08;36.25;;;20.95;;
72949;SDS011;64868;45.710;9.590;2023-01-16T06:33:33;58.15;;;25.38;;
72949;SDS011;64868;45.710;9.590;2023-01-16T06:35:59;37.45;;;21.50;;
72949;SDS011;64868;45.710;9.590;2023-01-16T06:38:25;37.22;;;19.45;;
72949;SDS011;64868;45.710;9.590;2023-01-16T06:40:50;39.50;;;18.05;;
72949;SDS011;64868;45.710;9.590;2023-01-16T06:45:46;30.95;;;18.55;;
72949;SDS011;64868;45.710;9.590;2023-01-16T06:48:11;31.25;;;19.92;;
72949;SDS011;64868;45.710;9.590;2023-01-16T06:50:37;30.77;;;19.67;;
72949;SDS011;64868;45.710;9.590;2023-01-16T06:53:02;31.67;;;19.02;;
72949;SDS011;64868;45.710;9.590;2023-01-16T06:55:28;30.38;;;18.35;;
72949;SDS011;64868;45.710;9.590;2023-01-16T06:57:53;31.23;;;18.15;;
72949;SDS011;64868;45.710;9.590;2023-01-16T07:00:19;31.38;;;18.58;;
72949;SDS011;64868;45.710;9.590;2023-01-16T07:02:50;52.40;;;28.17;;
72949;SDS011;64868;45.710;9.590;2023-01-16T07:05:16;54.25;;;27.65;;
72949;SDS011;64868;45.710;9.590;2023-01-16T07:07:42;43.33;;;23.67;;
72949;SDS011;64868;45.710;9.590;2023-01-16T07:10:07;38.35;;;20.65;;
72949;SDS011;64868;45.710;9.590;2023-01-16T07:12:33;37.97;;;18.50;;
72949;SDS011;64868;45.710;9.590;2023-01-16T07:14:59;26.30;;;16.75;;
72949;SDS011;64868;45.710;9.590;2023-01-16T07:17:43;24.88;;;14.80;;
72949;SDS011;64868;45.710;9.590;2023-01-16T07:20:27;26.45;;;14.90;;
72949;SDS011;64868;45.710;9.590;2023-01-16T07:23:16;26.55;;;15.45;;
72949;SDS011;64868;45.710;9.590;2023-01-16T07:25:46;25.02;;;14.68;;
72949;SDS011;64868;45.710;9.590;2023-01-16T07:28:11;24.45;;;12.57;;
72949;SDS011;64868;45.710;9.590;2023-01-16T07:30:37;21.48;;;11.30;;
72949;SDS011;64868;45.710;9.590;2023-01-16T07:33:03;21.63;;;11.15;;
72949;SDS011;64868;45.710;9.590;2023-01-16T07:35:28;17.95;;;8.98;;
72949;SDS011;64868;45.710;9.590;2023-01-16T07:37:54;17.10;;;7.93;;
72949;SDS011;64868;45.710;9.590;2023-01-16T07:40:22;15.50;;;8.60;;
72949;SDS011;64868;45.710;9.590;2023-01-16T07:42:51;14.10;;;7.82;;
72949;SDS011;64868;45.710;9.590;2023-01-16T07:45:17;14.73;;;7.28;;
72949;SDS011;64868;45.710;9.590;2023-01-16T07:47:43;15.43;;;8.10;;
72949;SDS011;64868;45.710;9.590;2023-01-16T07:50:08;13.18;;;6.95;;
72949;SDS011;64868;45.710;9.590;2023-01-16T07:52:34;13.30;;;6.75;;
72949;SDS011;64868;45.710;9.590;2023-01-16T07:55:00;16.15;;;8.27;;
72949;SDS011;64868;45.710;9.590;2023-01-16T07:57:25;22.33;;;10.90;;
72949;SDS011;64868;45.710;9.590;2023-01-16T07:59:51;21.65;;;11.05;;
72949;SDS011;64868;45.710;9.590;2023-01-16T08:02:16;16.60;;;7.88;;
72949;SDS011;64868;45.710;9.590;2023-01-16T08:04:42;18.67;;;8.85;;
72949;SDS011;64868;45.710;9.590;2023-01-16T08:07:07;15.63;;;8.25;;
72949;SDS011;64868;45.710;9.590;2023-01-16T08:09:33;12.00;;;6.18;;
72949;SDS011;64868;45.710;9.590;2023-01-16T08:11:59;12.07;;;5.50;;
72949;SDS011;64868;45.710;9.590;2023-01-16T08:14:25;12.57;;;5.13;;
72949;SDS011;64868;45.710;9.590;2023-01-16T08:16:50;10.77;;;5.75;;
72949;SDS011;64868;45.710;9.590;2023-01-16T08:19:15;25.55;;;13.90;;
72949;SDS011;64868;45.710;9.590;2023-01-16T08:21:41;40.28;;;19.48;;
72949;SDS011;64868;45.710;9.590;2023-01-16T08:24:06;36.95;;;19.25;;
72949;SDS011;64868;45.710;9.590;2023-01-16T08:26:32;62.90;;;18.83;;
72949;SDS011;64868;45.710;9.590;2023-01-16T08:28:58;52.28;;;19.10;;
72949;SDS011;64868;45.710;9.590;2023-01-16T08:31:24;45.10;;;19.75;;
72949;SDS011;64868;45.710;9.590;2023-01-16T08:33:50;51.33;;;19.80;;
72949;SDS011;64868;45.710;9.590;2023-01-16T08:36:15;34.80;;;17.58;;
72949;SDS011;64868;45.710;9.590;2023-01-16T08:38:42;46.25;;;20.05;;
72949;SDS011;64868;45.710;9.590;2023-01-16T08:41:08;40.28;;;19.88;;
72949;SDS011;64868;45.710;9.590;2023-01-16T08:43:52;55.25;;;21.35;;
72949;SDS011;64868;45.710;9.590;2023-01-16T08:46:36;50.15;;;21.38;;
72949;SDS011;64868;45.710;9.590;2023-01-16T08:49:20;58.28;;;20.83;;
72949;SDS011;64868;45.710;9.590;2023-01-16T08:52:05;42.10;;;21.67;;
72949;SDS011;64868;45.710;9.590;2023-01-16T08:54:31;37.65;;;18.38;;
72949;SDS011;64868;45.710;9.590;2023-01-16T08:56:57;38.75;;;21.05;;
72949;SDS011;64868;45.710;9.590;2023-01-16T08:59:22;37.92;;;20.40;;
72949;SDS011;64868;45.710;9.590;2023-01-16T09:01:48;46.58;;;18.92;;
72949;SDS011;64868;45.710;9.590;2023-01-16T09:04:13;32.67;;;16.02;;
72949;SDS011;64868;45.710;9.590;2023-01-16T09:06:39;29.95;;;15.95;;
72949;SDS011;64868;45.710;9.590;2023-01-16T09:09:05;32.72;;;17.27;;
72949;SDS011;64868;45.710;9.590;2023-01-16T09:11:32;30.35;;;16.25;;
72949;SDS011;64868;45.710;9.590;2023-01-16T09:14:16;35.42;;;16.52;;
72949;SDS011;64868;45.710;9.590;2023-01-16T09:16:42;29.88;;;17.35;;
72949;SDS011;64868;45.710;9.590;2023-01-16T09:19:08;28.65;;;16.05;;
72949;SDS011;64868;45.710;9.590;2023-01-16T09:21:34;30.58;;;17.75;;
72949;SDS011;64868;45.710;9.590;2023-01-16T09:23:59;34.15;;;17.45;;
72949;SDS011;64868;45.710;9.590;2023-01-16T09:26:25;27.65;;;17.08;;
72949;SDS011;64868;45.710;9.590;2023-01-16T09:28:50;28.55;;;16.35;;
72949;SDS011;64868;45.710;9.590;2023-01-16T09:31:16;30.70;;;17.63;;
72949;SDS011;64868;45.710;9.590;2023-01-16T09:33:43;30.95;;;16.73;;
72949;SDS011;64868;45.710;9.590;2023-01-16T09:36:09;28.42;;;16.95;;
72949;SDS011;64868;45.710;9.590;2023-01-16T09:38:35;32.33;;;18.00;;
72949;SDS011;64868;45.710;9.590;2023-01-16T09:41:01;32.30;;;18.33;;
72949;SDS011;64868;45.710;9.590;2023-01-16T09:46:05;31.33;;;17.77;;
72949;SDS011;64868;45.710;9.590;2023-01-16T09:48:38;27.23;;;17.10;;
72949;SDS011;64868;45.710;9.590;2023-01-16T09:51:11;27.52;;;16.52;;
72949;SDS011;64868;45.710;9.590;2023-01-16T09:53:45;28.55;;;16.75;;
72949;SDS011;64868;45.710;9.590;2023-01-16T09:56:46;27.65;;;17.05;;
72949;SDS011;64868;45.710;9.590;2023-01-16T10:02:20;30.33;;;16.88;;
72949;SDS011;64868;45.710;9.590;2023-01-16T10:04:49;27.73;;;16.83;;
72949;SDS011;64868;45.710;9.590;2023-01-16T10:07:31;26.98;;;15.80;;
72949;SDS011;64868;45.710;9.590;2023-01-16T10:12:42;25.95;;;15.43;;
72949;SDS011;64868;45.710;9.590;2023-01-16T10:15:27;24.88;;;14.27;;
72949;SDS011;64868;45.710;9.590;2023-01-16T10:21:08;27.20;;;15.80;;
72949;SDS011;64868;45.710;9.590;2023-01-16T10:24:02;26.73;;;14.45;;
72949;SDS011;64868;45.710;9.590;2023-01-16T10:29:39;27.48;;;16.70;;
72949;SDS011;64868;45.710;9.590;2023-01-16T10:32:29;27.85;;;16.83;;
72949;SDS011;64868;45.710;9.590;2023-01-16T10:37:28;29.00;;;16.58;;
72949;SDS011;64868;45.710;9.590;2023-01-16T10:39:54;28.05;;;16.27;;
72949;SDS011;64868;45.710;9.590;2023-01-16T10:42:28;27.08;;;15.77;;
72949;SDS011;64868;45.710;9.590;2023-01-16T10:45:18;24.52;;;14.82;;
72949;SDS011;64868;45.710;9.590;2023-01-16T10:48:08;24.33;;;14.60;;
72949;SDS011;64868;45.710;9.590;2023-01-16T10:50:55;29.38;;;15.75;;
72949;SDS011;64868;45.710;9.590;2023-01-16T10:53:21;27.13;;;16.38;;
72949;SDS011;64868;45.710;9.590;2023-01-16T10:55:47;28.35;;;16.80;;
72949;SDS011;64868;45.710;9.590;2023-01-16T10:58:27;27.67;;;16.15;;
72949;SDS011;64868;45.710;9.590;2023-01-16T11:01:01;29.85;;;16.42;;
72949;SDS011;64868;45.710;9.590;2023-01-16T11:03:34;26.80;;;16.20;;
72949;SDS011;64868;45.710;9.590;2023-01-16T11:06:07;29.58;;;17.30;;
72949;SDS011;64868;45.710;9.590;2023-01-16T11:08:35;29.17;;;16.73;;
72949;SDS011;64868;45.710;9.590;2023-01-16T11:11:01;30.30;;;17.27;;
72949;SDS011;64868;45.710;9.590;2023-01-16T11:13:27;27.63;;;15.43;;
72949;SDS011;64868;45.710;9.590;2023-01-16T11:18:59;35.25;;;18.92;;
72949;SDS011;64868;45.710;9.590;2023-01-16T11:21:42;39.28;;;22.25;;
72949;SDS011;64868;45.710;9.590;2023-01-16T11:24:17;40.78;;;21.38;;
72949;SDS011;64868;45.710;9.590;2023-01-16T11:26:50;40.97;;;22.40;;
72949;SDS011;64868;45.710;9.590;2023-01-16T11:29:18;41.00;;;22.42;;
72949;SDS011;64868;45.710;9.590;2023-01-16T11:31:48;61.78;;;29.83;;
72949;SDS011;64868;45.710;9.590;2023-01-16T11:34:20;44.28;;;21.23;;
72949;SDS011;64868;45.710;9.590;2023-01-16T11:36:50;45.45;;;24.35;;
72949;SDS011;64868;45.710;9.590;2023-01-16T11:39:20;42.00;;;21.40;;
72949;SDS011;64868;45.710;9.590;2023-01-16T11:41:49;43.28;;;24.55;;
72949;SDS011;64868;45.710;9.590;2023-01-16T11:44:26;37.28;;;20.25;;
72949;SDS011;64868;45.710;9.590;2023-01-16T11:47:16;31.45;;;19.15;;
72949;SDS011;64868;45.710;9.590;2023-01-16T11:52:18;35.42;;;18.73;;
72949;SDS011;64868;45.710;9.590;2023-01-16T11:54:57;31.42;;;17.50;;
72949;SDS011;64868;45.710;9.590;2023-01-16T11:57:30;29.88;;;17.67;;
72949;SDS011;64868;45.710;9.590;2023-01-16T12:00:01;28.48;;;17.23;;
72949;SDS011;64868;45.710;9.590;2023-01-16T12:02:52;30.20;;;16.55;;
72949;SDS011;64868;45.710;9.590;2023-01-16T12:08:39;27.83;;;16.23;;
72949;SDS011;64868;45.710;9.590;2023-01-16T12:16:33;31.17;;;17.55;;
72949;SDS011;64868;45.710;9.590;2023-01-16T12:27:43;29.20;;;16.75;;
72949;SDS011;64868;45.710;9.590;2023-01-16T12:33:23;28.02;;;15.70;;
72949;SDS011;64868;45.710;9.590;2023-01-16T12:36:06;29.08;;;15.77;;
72949;SDS011;64868;45.710;9.590;2023-01-16T12:41:35;26.38;;;15.25;;
72949;SDS011;64868;45.710;9.590;2023-01-16T12:44:50;26.33;;;15.38;;
72949;SDS011;64868;45.710;9.590;2023-01-16T12:58:42;25.17;;;15.25;;
72949;SDS011;64868;45.710;9.590;2023-01-16T13:01:19;24.75;;;14.10;;
72949;SDS011;64868;45.710;9.590;2023-01-16T13:04:00;23.63;;;13.60;;
72949;SDS011;64868;45.710;9.590;2023-01-16T13:08:57;24.25;;;13.75;;
72949;SDS011;64868;45.710;9.590;2023-01-16T13:11:31;27.92;;;16.55;;
72949;SDS011;64868;45.710;9.590;2023-01-16T13:14:20;28.45;;;15.80;;
72949;SDS011;64868;45.710;9.590;2023-01-16T13:16:54;26.05;;;14.43;;
72949;SDS011;64868;45.710;9.590;2023-01-16T13:19:29;23.73;;;13.20;;
72949;SDS011;64868;45.710;9.590;2023-01-16T13:21:58;23.52;;;14.25;;
72949;SDS011;64868;45.710;9.590;2023-01-16T13:24:33;24.30;;;14.63;;
72949;SDS011;64868;45.710;9.590;2023-01-16T13:27:05;24.67;;;13.30;;
72949;SDS011;64868;45.710;9.590;2023-01-16T13:29:42;23.23;;;12.98;;
72949;SDS011;64868;45.710;9.590;2023-01-16T13:32:29;27.52;;;14.40;;
72949;SDS011;64868;45.710;9.590;2023-01-16T13:35:03;23.23;;;13.70;;
72949;SDS011;64868;45.710;9.590;2023-01-16T13:43:01;23.27;;;13.57;;
72949;SDS011;64868;45.710;9.590;2023-01-16T13:45:48;22.98;;;13.90;;
72949;SDS011;64868;45.710;9.590;2023-01-16T13:48:18;22.05;;;13.50;;
72949;SDS011;64868;45.710;9.590;2023-01-16T13:50:48;25.15;;;15.13;;
72949;SDS011;64868;45.710;9.590;2023-01-16T13:53:24;27.23;;;15.20;;
72949;SDS011;64868;45.710;9.590;2023-01-16T13:56:00;26.05;;;16.27;;
72949;SDS011;64868;45.710;9.590;2023-01-16T13:58:30;25.65;;;14.93;;
72949;SDS011;64868;45.710;9.590;2023-01-16T14:00:57;27.95;;;15.82;;
72949;SDS011;64868;45.710;9.590;2023-01-16T14:03:29;27.40;;;15.70;;
72949;SDS011;64868;45.710;9.590;2023-01-16T14:08:49;27.40;;;16.25;;
72949;SDS011;64868;45.710;9.590;2023-01-16T14:17:27;25.05;;;15.15;;
72949;SDS011;64868;45.710;9.590;2023-01-16T14:22:33;24.20;;;14.80;;
72949;SDS011;64868;45.710;9.590;2023-01-16T14:25:13;23.98;;;13.65;;
72949;SDS011;64868;45.710;9.590;2023-01-16T14:27:43;22.73;;;14.68;;
72949;SDS011;64868;45.710;9.590;2023-01-16T14:30:18;21.40;;;12.88;;
72949;SDS011;64868;45.710;9.590;2023-01-16T14:32:50;25.65;;;13.88;;
72949;SDS011;64868;45.710;9.590;2023-01-16T14:35:25;24.98;;;15.02;;
72949;SDS011;64868;45.710;9.590;2023-01-16T14:37:55;23.92;;;14.32;;
72949;SDS011;64868;45.710;9.590;2023-01-16T14:40:30;21.50;;;13.52;;
72949;SDS011;64868;45.710;9.590;2023-01-16T14:43:28;23.48;;;13.98;;
72949;SDS011;64868;45.710;9.590;2023-01-16T14:52:36;23.17;;;13.20;;
72949;SDS011;64868;45.710;9.590;2023-01-16T14:57:59;17.40;;;9.82;;
72949;SDS011;64868;45.710;9.590;2023-01-16T15:00:26;16.55;;;9.20;;
72949;SDS011;64868;45.710;9.590;2023-01-16T15:03:03;17.10;;;8.57;;
72949;SDS011;64868;45.710;9.590;2023-01-16T15:05:35;17.05;;;9.10;;
72949;SDS011;64868;45.710;9.590;2023-01-16T15:08:20;17.27;;;9.55;;
72949;SDS011;64868;45.710;9.590;2023-01-16T15:10:50;16.13;;;9.68;;
72949;SDS011;64868;45.710;9.590;2023-01-16T15:18:29;15.07;;;8.35;;
72949;SDS011;64868;45.710;9.590;2023-01-16T15:21:14;15.90;;;8.90;;
72949;SDS011;64868;45.710;9.590;2023-01-16T15:24:04;13.13;;;7.22;;
72949;SDS011;64868;45.710;9.590;2023-01-16T15:26:40;14.90;;;8.50;;
72949;SDS011;64868;45.710;9.590;2023-01-16T15:31:47;15.15;;;8.18;;
72949;SDS011;64868;45.710;9.590;2023-01-16T15:34:28;13.95;;;7.03;;
72949;SDS011;64868;45.710;9.590;2023-01-16T15:36:54;13.57;;;7.50;;
72949;SDS011;64868;45.710;9.590;2023-01-16T15:45:04;12.60;;;6.88;;
72949;SDS011;64868;45.710;9.590;2023-01-16T15:50:55;14.10;;;8.55;;
72949;SDS011;64868;45.710;9.590;2023-01-16T15:53:23;13.95;;;7.65;;
72949;SDS011;64868;45.710;9.590;2023-01-16T15:55:51;14.10;;;8.35;;
72949;SDS011;64868;45.710;9.590;2023-01-16T15:58:22;14.77;;;8.50;;
72949;SDS011;64868;45.710;9.590;2023-01-16T16:00:55;18.27;;;10.60;;
72949;SDS011;64868;45.710;9.590;2023-01-16T16:03:23;16.10;;;9.02;;
72949;SDS011;64868;45.710;9.590;2023-01-16T16:06:02;18.08;;;8.98;;
72949;SDS011;64868;45.710;9.590;2023-01-16T16:08:32;16.30;;;8.30;;
72949;SDS011;64868;45.710;9.590;2023-01-16T16:11:03;15.55;;;8.57;;
72949;SDS011;64868;45.710;9.590;2023-01-16T16:13:49;15.25;;;8.30;;
72949;SDS011;64868;45.710;9.590;2023-01-16T16:16:17;12.70;;;7.90;;
72949;SDS011;64868;45.710;9.590;2023-01-16T16:19:04;15.40;;;8.95;;
72949;SDS011;64868;45.710;9.590;2023-01-16T16:24:33;14.02;;;7.78;;
72949;SDS011;64868;45.710;9.590;2023-01-16T16:27:03;14.70;;;7.63;;
72949;SDS011;64868;45.710;9.590;2023-01-16T16:29:31;15.00;;;8.38;;
72949;SDS011;64868;45.710;9.590;2023-01-16T16:32:00;14.63;;;8.57;;
72949;SDS011;64868;45.710;9.590;2023-01-16T16:34:27;15.02;;;8.77;;
72949;SDS011;64868;45.710;9.590;2023-01-16T16:36:54;16.55;;;9.18;;
72949;SDS011;64868;45.710;9.590;2023-01-16T16:47:32;18.55;;;10.20;;
72949;SDS011;64868;45.710;9.590;2023-01-16T16:53:14;13.60;;;8.50;;
72949;SDS011;64868;45.710;9.590;2023-01-16T17:00:40;16.52;;;8.63;;
72949;SDS011;64868;45.710;9.590;2023-01-16T17:05:38;15.77;;;9.48;;
72949;SDS011;64868;45.710;9.590;2023-01-16T17:08:04;17.02;;;9.82;;
72949;SDS011;64868;45.710;9.590;2023-01-16T17:10:30;19.00;;;10.73;;
72949;SDS011;64868;45.710;9.590;2023-01-16T17:12:56;18.27;;;9.25;;
72949;SDS011;64868;45.710;9.590;2023-01-16T17:15:22;22.73;;;11.48;;
72949;SDS011;64868;45.710;9.590;2023-01-16T17:17:47;21.25;;;11.40;;
72949;SDS011;64868;45.710;9.590;2023-01-16T17:20:21;17.73;;;9.43;;
72949;SDS011;64868;45.710;9.590;2023-01-16T17:22:48;17.25;;;10.60;;
72949;SDS011;64868;45.710;9.590;2023-01-16T17:25:15;17.20;;;10.35;;
72949;SDS011;64868;45.710;9.590;2023-01-16T17:27:48;16.42;;;9.60;;
72949;SDS011;64868;45.710;9.590;2023-01-16T17:30:19;17.35;;;10.02;;
72949;SDS011;64868;45.710;9.590;2023-01-16T17:32:52;18.33;;;10.80;;
72949;SDS011;64868;45.710;9.590;2023-01-16T17:35:20;17.33;;;10.55;;
72949;SDS011;64868;45.710;9.590;2023-01-16T17:37:46;22.90;;;12.50;;
72949;SDS011;64868;45.710;9.590;2023-01-16T17:40:11;20.52;;;11.90;;
72949;SDS011;64868;45.710;9.590;2023-01-16T17:42:37;19.60;;;11.43;;